KECP

Northwest Florida Beaches International Airport

Panama City, Florida, USA
METAR KECP 181453Z 03011KT 10SM CLR 24/11 A3025
Observed Flight Rules
Oct-18 @ 14:53 UTC (2 hours ago) Visual Flight Rules
Wind Visibility Clouds
30° at 11 knots 10 miles
  • Clear skies
Temperatures Readings
Current 24°C / 75°F
Dewpoint 11°C / 52°F
Humidity 44%
Altimeter 30.25" Hg
Pressure 1024 hPa
Elevation 21
METAR KECP 181453Z 03011KT 10SM CLR 24/11 A3025
Observed Flight Rules
Oct-18 @ 14:53 UTC
(2 hours ago)
VFR
Wind Visibility
30° at 11 knots 10 miles
Clouds
  • Clear skies
Temperature Dewpoint
24°C / 75°F 11°C / 52°F
Humidity Altimeter Pressure
44% 30.25" Hg 1024 hPa